Time;durP1;ratioP1;P1;durP2;ratioP2;P2;SDS_P1;SDS_P2;PMS_P1;PMS_P2;Temp;Humidity;BMP_temperature;BMP_pressure;BME280_temperature;BME280_humidity;BME280_pressure;Samples;Min_cycle;Max_cycle;Signal;HPM_P1;HPM_P2
2022/04/19 00:01:44;;;;;;;;;;;;;;;5.36;69.78;94672.97;5135417;27;1980;-48
2022/04/19 00:04:11;;;;;;;;;;;;;;;5.28;69.61;94681.63;5135163;27;1099;-48
2022/04/19 00:06:37;;;;;;;;;;;;;;;5.22;69.62;94669.78;5135095;27;1071;-48
2022/04/19 00:09:03;;;;;;;;;;;;;;;5.24;70.07;94681.06;5134073;27;969;-48
2022/04/19 00:11:30;;;;;;;;;;;;;;;5.29;69.54;94675.34;5135178;27;1015;-48
2022/04/19 00:13:56;;;;;;;;;;;;;;;5.36;70.16;94678.28;5134950;27;1068;-48
2022/04/19 00:16:21;;;;;;;;;;;;;;;5.36;69.89;94672.97;5135029;27;1032;-48
2022/04/19 00:18:47;;;;;;;;;;;;;;;5.38;70.47;94673.66;5134985;27;976;-48
2022/04/19 00:21:14;;;;;;;;;;;;;;;5.48;70.24;94680.66;5134847;27;1909;-48
2022/04/19 00:23:40;;;;;;;;;;;;;;;5.46;70.98;94668.47;5134756;27;1068;-48
2022/04/19 00:26:06;;;;;;;;;;;;;;;5.40;71.17;94674.34;5135081;27;1011;-48
2022/04/19 00:28:32;;;;;;;;;;;;;;;5.35;71.14;94671.28;5134633;27;1285;-48
2022/04/19 00:30:58;;;;;;;;;;;;;;;5.45;70.12;94669.47;5134732;27;1933;-48
2022/04/19 00:33:25;;;;;;;;;;;;;;;5.40;70.56;94655.81;5134999;27;972;-48
2022/04/19 00:35:51;;;;;;;;;;;;;;;5.34;71.07;94664.31;5134951;27;980;-48
2022/04/19 00:38:17;;;;;;;;;;;;;;;5.37;71.04;94659.59;5134567;27;1043;-48
2022/04/19 00:40:43;;;;;;;;;;;;;;;5.39;70.83;94662.09;5134479;27;1993;-48
2022/04/19 00:43:10;;;;;;;;;;;;;;;5.38;71.00;94660.41;5134506;27;1020;-48
2022/04/19 00:45:36;;;;;;;;;;;;;;;5.33;71.21;94657.34;5134931;27;1059;-48
2022/04/19 00:48:03;;;;;;;;;;;;;;;5.28;71.38;94660.44;5134496;27;1075;-48
2022/04/19 00:50:31;;;;;;;;;;;;;;;5.32;71.71;94660.97;5134441;27;1086;-48
2022/04/19 00:52:57;;;;;;;;;;;;;;;5.33;71.33;94663.50;5134381;28;1012;-48
2022/04/19 00:55:24;;;;;;;;;;;;;;;5.31;71.69;94670.72;5134669;28;988;-48
2022/04/19 00:57:51;;;;;;;;;;;;;;;5.20;71.82;94662.94;5134510;28;976;-48
2022/04/19 01:00:17;;;;;;;;;;;;;;;5.14;72.10;94661.69;5136195;27;2006;-48
2022/04/19 01:02:43;;;;;;;;;;;;;;;5.10;71.44;94660.28;5138686;27;1149;-48
2022/04/19 01:05:09;;;;;;;;;;;;;;;5.06;71.72;94658.88;5138661;27;1027;-48
2022/04/19 01:07:38;;;;;;;;;;;;;;;4.99;71.02;94663.94;5138558;27;1072;-48
2022/04/19 01:10:05;;;;;;;;;;;;;;;4.95;70.88;94657.22;5138835;27;964;-48
2022/04/19 01:15:15;;;;;;;;;;;;;;;4.75;71.77;94653.72;5138782;27;1031;-48
2022/04/19 01:17:42;;;;;;;;;;;;;;;4.68;72.03;94655.25;5138718;27;1012;-48
2022/04/19 01:20:08;;;;;;;;;;;;;;;4.55;71.86;94652.84;5138229;27;1996;-48
2022/04/19 01:22:38;;;;;;;;;;;;;;;4.33;71.79;94647.81;5138586;27;964;-48
2022/04/19 01:25:05;;;;;;;;;;;;;;;4.08;72.50;94648.13;5138556;27;956;-48
2022/04/19 01:27:31;;;;;;;;;;;;;;;4.11;72.17;94647.03;5138097;27;1071;-48
2022/04/19 01:30:06;;;;;;;;;;;;;;;4.14;71.62;94653.88;5138249;27;1019;-48
2022/04/19 01:32:32;;;;;;;;;;;;;;;3.97;72.04;94645.59;5138357;27;1007;-48
2022/04/19 01:35:12;;;;;;;;;;;;;;;3.92;72.44;94637.19;5138069;27;1032;-48
2022/04/19 01:37:39;;;;;;;;;;;;;;;3.97;72.08;94634.19;5138284;27;952;-48
2022/04/19 01:40:18;;;;;;;;;;;;;;;3.84;71.65;94637.88;5138022;27;1990;-48
2022/04/19 01:42:50;;;;;;;;;;;;;;;3.65;71.12;94638.63;5138023;27;1063;-48
2022/04/19 01:45:17;;;;;;;;;;;;;;;3.36;70.72;94635.81;5137866;27;1071;-48
2022/04/19 01:47:43;;;;;;;;;;;;;;;3.21;71.43;94645.03;5137794;27;920;-48
2022/04/19 01:50:11;;;;;;;;;;;;;;;3.14;72.16;94639.44;5137728;27;1009;-48
2022/04/19 01:52:38;;;;;;;;;;;;;;;3.13;72.16;94646.53;5137721;27;1063;-48
2022/04/19 01:55:05;;;;;;;;;;;;;;;3.13;72.09;94643.88;5137901;27;984;-48
2022/04/19 01:57:31;;;;;;;;;;;;;;;3.09;72.51;94641.59;5137648;27;1050;-48
2022/04/19 01:59:57;;;;;;;;;;;;;;;3.12;72.29;94647.47;5137450;27;1905;-48
2022/04/19 02:02:23;;;;;;;;;;;;;;;3.05;72.05;94646.31;5137429;27;1269;-48
2022/04/19 02:04:52;;;;;;;;;;;;;;;2.99;72.51;94646.00;5137483;27;1071;-48
2022/04/19 02:07:18;;;;;;;;;;;;;;;3.02;72.52;94643.94;5137417;27;1044;-48
2022/04/19 02:09:44;;;;;;;;;;;;;;;3.13;72.82;94638.59;5137497;27;1060;-48
2022/04/19 02:12:10;;;;;;;;;;;;;;;3.27;72.28;94636.59;5137115;27;1004;-48
2022/04/19 02:14:41;;;;;;;;;;;;;;;3.46;71.79;94646.44;5137569;27;1000;-48
2022/04/19 02:17:09;;;;;;;;;;;;;;;3.62;72.08;94648.63;5137340;27;919;-48
2022/04/19 02:19:35;;;;;;;;;;;;;;;3.76;71.66;94644.81;5137417;27;1049;-48
2022/04/19 02:22:02;;;;;;;;;;;;;;;3.74;71.63;94647.59;5137339;27;1945;-48
2022/04/19 02:24:28;;;;;;;;;;;;;;;3.81;72.07;94648.69;5137414;27;948;-48
2022/04/19 02:26:54;;;;;;;;;;;;;;;3.75;72.00;94648.41;5136816;27;1091;-49
2022/04/19 02:29:25;;;;;;;;;;;;;;;3.80;72.08;94646.22;5137068;27;1031;-48
2022/04/19 02:31:51;;;;;;;;;;;;;;;3.88;71.64;94649.03;5137187;27;1047;-48
2022/04/19 02:34:18;;;;;;;;;;;;;;;3.79;72.15;94652.47;5136869;27;1079;-48
2022/04/19 02:36:44;;;;;;;;;;;;;;;3.79;72.59;94649.81;5137159;27;1015;-48
2022/04/19 02:39:11;;;;;;;;;;;;;;;3.96;71.67;94657.13;5136796;27;1040;-48
2022/04/19 02:41:37;;;;;;;;;;;;;;;3.98;71.78;94657.81;5136518;27;1989;-48
2022/04/19 02:44:04;;;;;;;;;;;;;;;3.78;71.73;94653.44;5136938;27;972;-48
2022/04/19 02:46:30;;;;;;;;;;;;;;;3.56;72.61;94657.91;5136990;27;952;-48
2022/04/19 02:48:58;;;;;;;;;;;;;;;3.47;73.10;94656.03;5136590;27;1134;-48
2022/04/19 02:51:24;;;;;;;;;;;;;;;3.45;73.67;94657.97;5136658;27;975;-48
2022/04/19 02:53:50;;;;;;;;;;;;;;;3.50;72.91;94666.38;5136805;27;1023;-48
2022/04/19 02:56:16;;;;;;;;;;;;;;;3.61;73.60;94666.28;5136257;27;1095;-48
2022/04/19 02:58:45;;;;;;;;;;;;;;;3.76;73.29;94671.25;5136661;27;1030;-48
2022/04/19 03:01:11;;;;;;;;;;;;;;;3.81;72.87;94672.50;5136286;27;1909;-48
2022/04/19 03:03:37;;;;;;;;;;;;;;;3.90;73.29;94673.53;5136451;27;968;-48
2022/04/19 03:06:03;;;;;;;;;;;;;;;3.82;73.16;94679.47;5136262;27;1016;-48
2022/04/19 03:08:32;;;;;;;;;;;;;;;3.78;72.97;94686.00;5136578;27;1054;-48
2022/04/19 03:10:58;;;;;;;;;;;;;;;3.76;73.21;94681.81;5136142;27;980;-48
2022/04/19 03:13:27;;;;;;;;;;;;;;;3.91;73.37;94685.81;5135215;27;1035;-48
2022/04/19 03:15:53;;;;;;;;;;;;;;;4.13;72.39;94684.75;5136264;27;999;-48
2022/04/19 03:18:19;;;;;;;;;;;;;;;4.01;72.89;94688.47;5136324;27;1030;-48
2022/04/19 03:20:46;;;;;;;;;;;;;;;4.00;73.17;94692.91;5135911;27;1988;-48
2022/04/19 03:28:42;;;;;;;;;;;;;;;4.25;72.44;94699.59;5136150;27;1038;-48
2022/04/19 03:31:08;;;;;;;;;;;;;;;4.18;73.06;94698.44;5135799;27;1063;-48
2022/04/19 03:33:37;;;;;;;;;;;;;;;4.13;72.13;94699.81;5135787;27;1020;-48
2022/04/19 03:36:04;;;;;;;;;;;;;;;4.13;73.13;94707.75;5135678;27;1075;-48
2022/04/19 03:38:30;;;;;;;;;;;;;;;4.30;72.72;94707.13;5135841;27;2134;-48
2022/04/19 03:40:56;;;;;;;;;;;;;;;4.32;73.48;94713.09;5135490;27;1996;-48
2022/04/19 03:43:22;;;;;;;;;;;;;;;4.37;72.89;94715.38;5135507;27;1103;-48
2022/04/19 03:45:48;;;;;;;;;;;;;;;4.42;73.02;94719.28;5135500;27;1008;-48
2022/04/19 03:48:14;;;;;;;;;;;;;;;4.53;72.55;94718.31;5135457;27;1213;-48
2022/04/19 03:50:41;;;;;;;;;;;;;;;4.57;72.89;94718.91;5135435;27;958;-48
2022/04/19 03:53:07;;;;;;;;;;;;;;;4.53;72.37;94722.78;5135717;27;1074;-48
2022/04/19 03:55:33;;;;;;;;;;;;;;;4.32;72.42;94729.00;5135493;27;1034;-48
2022/04/19 03:57:59;;;;;;;;;;;;;;;4.22;72.59;94726.31;5135433;27;989;-48
2022/04/19 04:00:25;;;;;;;;;;;;;;;4.27;72.01;94732.03;5135127;27;1984;-48
2022/04/19 04:02:51;;;;;;;;;;;;;;;4.45;71.74;94737.53;5135159;27;1083;-48
2022/04/19 04:05:17;;;;;;;;;;;;;;;4.44;71.26;94733.22;5135002;27;948;-48
2022/04/19 04:07:43;;;;;;;;;;;;;;;4.42;72.29;94737.81;5135024;27;1099;-48
2022/04/19 04:10:09;;;;;;;;;;;;;;;4.45;71.79;94737.53;5135085;27;1210;-48
2022/04/19 04:12:35;;;;;;;;;;;;;;;4.45;71.88;94740.19;5135167;27;987;-48
2022/04/19 04:15:01;;;;;;;;;;;;;;;4.50;72.48;94745.91;5135088;27;1036;-48
2022/04/19 04:17:27;;;;;;;;;;;;;;;4.59;72.39;94744.28;5134916;27;1037;-48
2022/04/19 04:19:53;;;;;;;;;;;;;;;4.60;71.86;94751.25;5134711;27;1994;-48
2022/04/19 04:22:19;;;;;;;;;;;;;;;4.59;72.52;94744.28;5134851;27;1023;-48
2022/04/19 04:24:45;;;;;;;;;;;;;;;4.66;72.03;94752.50;5134960;27;948;-48
2022/04/19 04:27:11;;;;;;;;;;;;;;;4.72;71.43;94756.44;5134740;27;1195;-48
2022/04/19 04:29:38;;;;;;;;;;;;;;;4.68;72.02;94753.22;5135074;27;1048;-48
2022/04/19 04:32:04;;;;;;;;;;;;;;;4.76;72.08;94757.84;5135006;27;984;-48
2022/04/19 04:34:30;;;;;;;;;;;;;;;4.84;71.08;94758.03;5133698;27;983;-48
2022/04/19 04:36:56;;;;;;;;;;;;;;;4.85;70.46;94760.50;5134833;27;956;-48
2022/04/19 04:39:22;;;;;;;;;;;;;;;4.78;69.69;94755.88;5134388;27;1083;-48
2022/04/19 04:41:48;;;;;;;;;;;;;;;4.82;70.77;94763.44;5134770;27;1990;-48
2022/04/19 04:44:14;;;;;;;;;;;;;;;4.95;70.57;94757.91;5134480;27;1020;-48
2022/04/19 04:49:41;;;;;;;;;;;;;;;5.31;70.28;94768.81;5112803;27;1126;-48
2022/04/19 04:52:11;;;;;;;;;;;;;;;5.42;69.67;94760.72;5134642;27;1026;-48
2022/04/19 04:54:38;;;;;;;;;;;;;;;5.51;70.00;94769.66;5134272;27;1044;-48
2022/04/19 04:57:04;;;;;;;;;;;;;;;5.71;68.78;94772.31;5134369;28;1084;-48
2022/04/19 04:59:31;;;;;;;;;;;;;;;5.84;68.55;94770.19;5134298;28;1020;-48
2022/04/19 05:01:57;;;;;;;;;;;;;;;6.61;66.79;94771.03;5134250;28;1975;-48
2022/04/19 05:04:23;;;;;;;;;;;;;;;6.96;65.41;94775.63;5134526;28;1043;-48
2022/04/19 05:06:50;;;;;;;;;;;;;;;6.78;65.90;94780.03;5134513;28;976;-48
2022/04/19 05:09:16;;;;;;;;;;;;;;;6.63;65.48;94769.88;5134549;28;1020;-48
2022/04/19 05:11:42;;;;;;;;;;;;;;;6.70;65.58;94772.81;5133063;28;1075;-48
2022/04/19 05:14:08;;;;;;;;;;;;;;;6.75;65.46;94775.84;5134179;28;1175;-48
2022/04/19 05:16:35;;;;;;;;;;;;;;;6.63;65.43;94782.34;5134540;28;953;-48
2022/04/19 05:19:02;;;;;;;;;;;;;;;6.55;66.56;94782.25;5134375;28;1034;-48
2022/04/19 05:21:28;;;;;;;;;;;;;;;6.56;67.10;94784.72;5134464;28;2000;-48
2022/04/19 05:23:55;;;;;;;;;;;;;;;6.47;67.01;94788.28;5134003;28;1056;-48
2022/04/19 05:26:21;;;;;;;;;;;;;;;6.55;65.53;94790.22;5133975;28;1083;-48
2022/04/19 05:28:47;;;;;;;;;;;;;;;6.50;65.85;94795.94;5134399;28;948;-48
2022/04/19 05:31:13;;;;;;;;;;;;;;;6.39;66.18;94794.31;5134051;28;1029;-48
2022/04/19 05:33:39;;;;;;;;;;;;;;;6.31;66.67;94790.69;5134276;28;1035;-48
2022/04/19 05:36:06;;;;;;;;;;;;;;;6.32;65.94;94798.53;5134274;28;1047;-48
2022/04/19 05:38:32;;;;;;;;;;;;;;;6.40;65.83;94801.28;5134183;28;1066;-48
2022/04/19 05:40:58;;;;;;;;;;;;;;;6.43;65.70;94803.66;5133974;28;1909;-48
2022/04/19 05:43:25;;;;;;;;;;;;;;;6.37;66.91;94806.03;5134110;28;1031;-48
2022/04/19 05:45:51;;;;;;;;;;;;;;;6.30;67.83;94803.13;5135202;27;1031;-48
2022/04/19 05:48:17;;;;;;;;;;;;;;;6.18;68.55;94814.88;5138074;27;984;-48
2022/04/19 05:50:43;;;;;;;;;;;;;;;6.05;69.04;94813.38;5137748;27;1016;-48
2022/04/19 05:53:09;;;;;;;;;;;;;;;5.97;68.64;94823.84;5137882;27;1020;-48
2022/04/19 05:55:35;;;;;;;;;;;;;;;5.93;68.57;94827.72;5137934;27;1087;-48
2022/04/19 05:58:01;;;;;;;;;;;;;;;5.91;69.37;94820.91;5137813;27;972;-48
2022/04/19 06:00:27;;;;;;;;;;;;;;;5.97;68.69;94826.50;5137513;27;1980;-48
2022/04/19 06:05:38;;;;;;;;;;;;;;;5.86;70.18;94829.25;5137750;27;1025;-48
2022/04/19 06:08:04;;;;;;;;;;;;;;;5.89;69.03;94831.66;5137352;27;1012;-48
2022/04/19 06:10:30;;;;;;;;;;;;;;;5.65;70.17;94837.38;5137362;27;1020;-48
2022/04/19 06:12:56;;;;;;;;;;;;;;;5.30;71.43;94832.59;5137644;27;971;-48
2022/04/19 06:15:22;;;;;;;;;;;;;;;5.15;73.01;94829.50;5137339;27;1840;-48
2022/04/19 06:17:48;;;;;;;;;;;;;;;5.16;73.00;94825.84;5137477;27;944;-48
2022/04/19 06:20:15;;;;;;;;;;;;;;;5.23;72.91;94827.81;5137464;27;1996;-48
2022/04/19 06:22:41;;;;;;;;;;;;;;;5.31;72.41;94829.78;5137105;27;1012;-48
2022/04/19 06:25:07;;;;;;;;;;;;;;;5.42;72.49;94828.84;5137066;27;2001;-48
2022/04/19 06:27:33;;;;;;;;;;;;;;;5.60;71.45;94829.00;5137053;27;1221;-48
2022/04/19 06:29:59;;;;;;;;;;;;;;;5.99;70.00;94827.19;5137069;27;1008;-48
2022/04/19 06:32:25;;;;;;;;;;;;;;;6.51;68.09;94820.69;5137293;27;963;-48
2022/04/19 06:34:53;;;;;;;;;;;;;;;7.67;64.87;94826.41;5136935;27;1103;-48
2022/04/19 06:37:20;;;;;;;;;;;;;;;8.66;63.10;94820.91;5137084;27;1015;-48
2022/04/19 06:39:46;;;;;;;;;;;;;;;9.84;60.41;94834.34;5137405;27;981;-47
2022/04/19 06:42:12;;;;;;;;;;;;;;;10.59;55.25;94816.56;5137105;27;1040;-48
2022/04/19 06:44:38;;;;;;;;;;;;;;;11.33;56.38;94819.84;5136768;27;1027;-48
2022/04/19 06:47:04;;;;;;;;;;;;;;;12.03;52.31;94821.66;5136712;27;1080;-48
2022/04/19 06:49:30;;;;;;;;;;;;;;;11.87;50.83;94819.06;5136688;27;1048;-48
2022/04/19 06:51:56;;;;;;;;;;;;;;;11.90;53.79;94822.25;5135347;27;1027;-48
2022/04/19 06:54:22;;;;;;;;;;;;;;;12.84;48.72;94821.16;5136509;27;1050;-48
2022/04/19 06:56:48;;;;;;;;;;;;;;;12.82;48.84;94818.63;5136070;27;1119;-48
2022/04/19 06:59:14;;;;;;;;;;;;;;;11.56;49.76;94829.78;5136093;27;1016;-50
2022/04/19 07:01:42;;;;;;;;;;;;;;;10.22;52.46;94825.88;5136265;27;1918;-48
2022/04/19 07:04:09;;;;;;;;;;;;;;;9.22;54.20;94824.03;5136638;27;1062;-49
2022/04/19 07:06:35;;;;;;;;;;;;;;;8.88;55.65;94822.19;5136335;27;1012;-48
2022/04/19 07:09:02;;;;;;;;;;;;;;;8.76;56.50;94818.97;5136382;27;1027;-49
2022/04/19 07:11:28;;;;;;;;;;;;;;;9.67;55.21;94832.66;5136446;27;995;-49
2022/04/19 07:13:55;;;;;;;;;;;;;;;11.92;49.19;94832.78;5136351;27;1131;-49
2022/04/19 07:16:21;;;;;;;;;;;;;;;12.60;45.69;94825.75;5136257;27;968;-48
2022/04/19 07:18:47;;;;;;;;;;;;;;;12.92;46.13;94826.44;5136050;27;1865;-48
2022/04/19 07:26:44;;;;;;;;;;;;;;;13.74;42.37;94822.00;5135759;27;1115;-48
2022/04/19 07:29:10;;;;;;;;;;;;;;;13.98;41.16;94820.78;5136045;27;1047;-48
2022/04/19 07:31:37;;;;;;;;;;;;;;;14.12;41.50;94819.94;5136154;27;1022;-48
2022/04/19 07:34:03;;;;;;;;;;;;;;;14.06;43.72;94818.00;5135804;27;1063;-48
2022/04/19 07:36:29;;;;;;;;;;;;;;;12.89;43.04;94808.84;5135593;27;1020;-48
2022/04/19 07:38:57;;;;;;;;;;;;;;;13.32;41.76;94815.44;5135883;27;984;-48
2022/04/19 07:41:24;;;;;;;;;;;;;;;13.52;41.89;94821.09;5135821;27;1909;-48
2022/04/19 07:43:50;;;;;;;;;;;;;;;13.09;40.79;94811.00;5135798;27;1028;-48
2022/04/19 07:46:16;;;;;;;;;;;;;;;13.60;42.47;94818.28;5135770;27;1043;-48
2022/04/19 07:48:44;;;;;;;;;;;;;;;13.75;40.66;94810.19;5135396;27;1024;-48
2022/04/19 07:51:11;;;;;;;;;;;;;;;13.96;42.72;94812.94;5135247;27;1033;-47
2022/04/19 07:53:37;;;;;;;;;;;;;;;14.40;41.56;94811.09;5135369;27;1036;-47
2022/04/19 07:56:03;;;;;;;;;;;;;;;14.71;43.17;94816.16;5135601;27;956;-48
2022/04/19 07:58:29;;;;;;;;;;;;;;;14.71;40.16;94808.06;5135608;27;1060;-48
2022/04/19 08:00:55;;;;;;;;;;;;;;;14.76;40.53;94800.25;5135209;27;1992;-48
2022/04/19 08:03:21;;;;;;;;;;;;;;;14.86;41.05;94801.78;5135142;27;1035;-48
2022/04/19 08:05:47;;;;;;;;;;;;;;;14.59;38.00;94791.63;5135478;27;1062;-48
2022/04/19 08:08:13;;;;;;;;;;;;;;;14.55;39.64;94795.72;5135170;27;1051;-48
2022/04/19 08:10:39;;;;;;;;;;;;;;;14.48;40.25;94800.19;5135330;27;961;-48
2022/04/19 08:13:05;;;;;;;;;;;;;;;14.44;38.35;94802.44;5135026;27;1332;-48
2022/04/19 08:15:31;;;;;;;;;;;;;;;14.48;39.26;94804.75;5134929;27;1040;-48
2022/04/19 08:17:57;;;;;;;;;;;;;;;14.48;40.17;94804.75;5135203;27;1031;-48
2022/04/19 08:20:24;;;;;;;;;;;;;;;14.58;39.63;94807.97;5134748;27;1990;-48
2022/04/19 08:22:50;;;;;;;;;;;;;;;14.78;39.05;94803.59;5134652;27;968;-48
2022/04/19 08:25:16;;;;;;;;;;;;;;;14.92;41.19;94807.19;5134978;27;1063;-47
2022/04/19 08:27:46;;;;;;;;;;;;;;;14.51;38.99;94807.03;5134687;27;1075;-48
2022/04/19 08:30:15;;;;;;;;;;;;;;;14.50;38.79;94803.53;5134727;27;1091;-50
2022/04/19 08:32:45;;;;;;;;;;;;;;;14.10;37.54;94800.47;5134599;27;1036;-48
2022/04/19 08:35:12;;;;;;;;;;;;;;;13.84;39.64;94795.63;5134864;27;1036;-48
2022/04/19 08:37:38;;;;;;;;;;;;;;;13.18;40.56;94795.63;5134466;27;1011;-48
2022/04/19 08:40:05;;;;;;;;;;;;;;;12.60;38.91;94790.88;5134656;27;1982;-48
2022/04/19 08:42:32;;;;;;;;;;;;;;;12.09;41.22;94787.97;5134630;27;1058;-49
2022/04/19 08:45:00;;;;;;;;;;;;;;;11.79;42.05;94787.78;5134595;27;1040;-49
2022/04/19 08:47:28;;;;;;;;;;;;;;;11.39;43.85;94791.56;5134400;27;1054;-49
2022/04/19 08:49:55;;;;;;;;;;;;;;;11.35;44.53;94788.38;5134435;27;1163;-49
2022/04/19 08:52:21;;;;;;;;;;;;;;;11.29;44.78;94789.09;5134647;27;1047;-49
2022/04/19 08:57:32;;;;;;;;;;;;;;;10.88;44.26;94803.44;5134483;27;1199;-49
2022/04/19 08:59:59;;;;;;;;;;;;;;;10.62;46.01;94803.66;5134484;28;1910;-49
2022/04/19 09:02:26;;;;;;;;;;;;;;;10.50;46.16;94797.81;5134601;27;980;-49
2022/04/19 09:04:52;;;;;;;;;;;;;;;10.09;44.43;94805.00;5134566;28;968;-49
2022/04/19 09:07:20;;;;;;;;;;;;;;;9.90;47.10;94807.00;5134336;28;968;-49
2022/04/19 09:09:59;;;;;;;;;;;;;;;9.88;47.88;94808.97;5134258;28;1044;-49
2022/04/19 09:12:26;;;;;;;;;;;;;;;9.98;49.38;94806.19;5134691;27;1040;-49
2022/04/19 09:15:08;;;;;;;;;;;;;;;10.81;48.66;94802.44;5134544;28;1106;-49
2022/04/19 09:17:40;;;;;;;;;;;;;;;12.57;46.52;94801.13;5134187;28;1100;-49
2022/04/19 09:20:09;;;;;;;;;;;;;;;13.37;44.70;94803.13;5134420;27;1909;-49
2022/04/19 09:22:37;;;;;;;;;;;;;;;12.87;43.39;94799.31;5138507;27;1051;-48
2022/04/19 09:25:18;;;;;;;;;;;;;;;12.89;43.36;94797.28;5138187;27;976;-48
2022/04/19 09:27:45;;;;;;;;;;;;;;;12.92;43.72;94804.97;5138194;27;1240;-48
2022/04/19 09:30:17;;;;;;;;;;;;;;;12.74;44.82;94799.13;5138433;27;1030;-49
2022/04/19 09:33:02;;;;;;;;;;;;;;;11.73;43.15;94809.94;5138290;27;1038;-49
2022/04/19 09:35:29;;;;;;;;;;;;;;;11.13;46.63;94809.56;5137960;27;1015;-48
2022/04/19 09:37:55;;;;;;;;;;;;;;;10.63;46.50;94808.00;5138385;27;972;-48
2022/04/19 09:40:28;;;;;;;;;;;;;;;10.36;48.32;94822.59;5138107;27;1913;-48
2022/04/19 09:42:57;;;;;;;;;;;;;;;10.14;48.48;94816.84;5138010;27;1820;-49
2022/04/19 09:45:26;;;;;;;;;;;;;;;9.99;49.46;94821.19;5138213;27;1035;-49
2022/04/19 09:47:52;;;;;;;;;;;;;;;10.05;49.13;94835.72;5137767;27;1094;-49
2022/04/19 09:50:18;;;;;;;;;;;;;;;9.94;50.15;94834.19;5137724;27;1172;-49
2022/04/19 09:52:48;;;;;;;;;;;;;;;9.87;51.02;94834.03;5137868;27;1857;-49
2022/04/19 09:55:15;;;;;;;;;;;;;;;10.10;50.74;94831.53;5138247;27;1050;-49
2022/04/19 09:57:41;;;;;;;;;;;;;;;11.12;52.34;94825.78;5137969;27;1031;-49
2022/04/19 10:00:14;;;;;;;;;;;;;;;11.95;47.80;94819.06;5137779;27;1909;-49
2022/04/19 10:08:20;;;;;;;;;;;;;;;12.19;47.93;94828.75;5137797;27;953;-49
2022/04/19 10:10:48;;;;;;;;;;;;;;;11.99;45.89;94824.84;5137609;27;968;-48
2022/04/19 10:13:17;;;;;;;;;;;;;;;12.30;47.92;94822.13;5137280;27;968;-48
2022/04/19 10:15:43;;;;;;;;;;;;;;;12.50;47.96;94819.78;5137533;27;975;-49
2022/04/19 10:18:09;;;;;;;;;;;;;;;12.11;48.08;94818.91;5137421;27;1202;-48
2022/04/19 10:20:39;;;;;;;;;;;;;;;11.47;47.13;94820.94;5137281;27;1906;-48
2022/04/19 10:23:08;;;;;;;;;;;;;;;11.28;47.50;94817.66;5137128;27;1134;-48
2022/04/19 10:25:43;;;;;;;;;;;;;;;11.11;47.53;94814.22;5137323;27;1020;-49
2022/04/19 10:28:13;;;;;;;;;;;;;;;11.35;46.79;94807.13;5136896;27;1120;-48
2022/04/19 10:30:46;;;;;;;;;;;;;;;11.85;43.25;94813.03;5137293;27;1044;-49
2022/04/19 10:33:31;;;;;;;;;;;;;;;11.82;45.36;94800.84;5135658;27;1024;-49
2022/04/19 10:36:10;;;;;;;;;;;;;;;12.04;44.44;94804.56;5136769;27;956;-49
2022/04/19 10:38:36;;;;;;;;;;;;;;;12.33;44.48;94799.47;5136858;27;1079;-49
2022/04/19 10:41:03;;;;;;;;;;;;;;;12.59;41.81;94796.41;5136665;27;1909;-49
2022/04/19 10:43:29;;;;;;;;;;;;;;;13.01;42.30;94797.66;5136730;27;1098;-49
2022/04/19 10:46:15;;;;;;;;;;;;;;;13.15;42.00;94790.66;5137021;27;956;-49
2022/04/19 10:48:59;;;;;;;;;;;;;;;13.28;45.40;94780.09;5136892;27;957;-49
2022/04/19 10:51:29;;;;;;;;;;;;;;;13.12;42.85;94775.72;5136722;27;932;-49
2022/04/19 10:53:54;;;;;;;;;;;;;;;13.26;44.98;94788.31;5136694;27;1054;-49
2022/04/19 10:56:20;;;;;;;;;;;;;;;13.20;43.25;94786.38;5135299;27;1100;-49
2022/04/19 10:58:46;;;;;;;;;;;;;;;13.13;42.64;94776.53;5136515;27;972;-49
2022/04/19 11:01:32;;;;;;;;;;;;;;;13.11;42.99;94775.91;5136786;27;1905;-49
2022/04/19 11:03:58;;;;;;;;;;;;;;;13.16;40.72;94774.31;5136652;27;1055;-49
2022/04/19 11:06:38;;;;;;;;;;;;;;;13.03;41.73;94758.91;5136145;27;1045;-49
2022/04/19 11:09:05;;;;;;;;;;;;;;;13.09;42.04;94768.88;5136360;27;980;-49
2022/04/19 11:11:43;;;;;;;;;;;;;;;13.17;40.13;94761.75;5136132;27;1040;-48
2022/04/19 11:14:23;;;;;;;;;;;;;;;13.09;40.44;94758.16;5136541;27;1034;-49
2022/04/19 11:16:53;;;;;;;;;;;;;;;12.80;39.30;94756.28;5136288;27;980;-49
2022/04/19 11:19:24;;;;;;;;;;;;;;;12.56;40.27;94756.53;5136177;27;980;-49
2022/04/19 11:21:52;;;;;;;;;;;;;;;12.82;40.65;94754.25;5135949;27;1992;-49
2022/04/19 11:24:36;;;;;;;;;;;;;;;12.75;40.57;94749.81;5136165;27;995;-49
2022/04/19 11:27:03;;;;;;;;;;;;;;;12.32;39.89;94750.41;5135947;27;1220;-50
2022/04/19 11:29:46;;;;;;;;;;;;;;;12.47;39.95;94743.22;5136145;27;1055;-49
2022/04/19 11:32:12;;;;;;;;;;;;;;;12.36;40.69;94745.53;5136160;27;1000;-50
2022/04/19 11:34:38;;;;;;;;;;;;;;;12.09;40.13;94742.41;5135565;27;1976;-48
2022/04/19 11:37:05;;;;;;;;;;;;;;;11.95;40.67;94749.41;5136037;27;1055;-49
2022/04/19 11:47:58;;;;;;;;;;;;;;;12.39;38.38;94737.94;5135721;27;1032;-49
2022/04/19 11:50:33;;;;;;;;;;;;;;;12.17;39.20;94734.28;5135475;27;1054;-49
2022/04/19 11:53:00;;;;;;;;;;;;;;;12.13;40.50;94742.88;5135523;27;1033;-49
2022/04/19 11:55:27;;;;;;;;;;;;;;;12.25;38.34;94738.75;5134406;27;1052;-49
2022/04/19 11:58:06;;;;;;;;;;;;;;;12.21;38.23;94740.13;5135588;27;968;-49
2022/04/19 12:00:33;;;;;;;;;;;;;;;12.05;40.51;94736.56;5135120;27;1983;-49
2022/04/19 12:03:01;;;;;;;;;;;;;;;11.82;39.53;94741.91;5135492;27;1027;-49
2022/04/19 12:05:27;;;;;;;;;;;;;;;11.80;38.36;94735.91;5135304;27;964;-49
2022/04/19 12:07:55;;;;;;;;;;;;;;;11.76;38.04;94736.44;5135050;27;920;-49
2022/04/19 12:10:21;;;;;;;;;;;;;;;11.58;38.25;94742.09;5134965;27;979;-49
2022/04/19 12:12:48;;;;;;;;;;;;;;;11.79;39.52;94739.59;5135036;27;1040;-49
2022/04/19 12:15:47;;;;;;;;;;;;;;;12.04;38.64;94731.38;5134969;27;1023;-49
2022/04/19 12:18:28;;;;;;;;;;;;;;;12.09;38.84;94734.38;5111312;27;1443;-49
2022/04/19 12:20:54;;;;;;;;;;;;;;;12.01;38.34;94743.31;5135333;27;1905;-49
2022/04/19 12:23:20;;;;;;;;;;;;;;;11.86;38.11;94735.19;5134863;27;1075;-49
2022/04/19 12:25:59;;;;;;;;;;;;;;;11.60;37.25;94727.50;5135206;27;1019;-48
2022/04/19 12:28:34;;;;;;;;;;;;;;;11.61;37.57;94725.66;3192921;27;2249;-49
2022/04/19 12:31:00;;;;;;;;;;;;;;;11.66;37.75;94721.44;5134711;27;976;-49
2022/04/19 12:33:26;;;;;;;;;;;;;;;11.47;37.57;94720.03;5134930;27;957;-48
2022/04/19 12:35:55;;;;;;;;;;;;;;;11.36;40.05;94703.56;5134836;27;1019;-49
2022/04/19 12:38:28;;;;;;;;;;;;;;;11.35;40.65;94716.13;5134566;27;985;-49
2022/04/19 12:40:54;;;;;;;;;;;;;;;11.23;40.32;94713.03;5134828;27;1984;-49
2022/04/19 12:43:20;;;;;;;;;;;;;;;10.99;41.37;94705.13;5134594;27;1066;-48
2022/04/19 12:45:48;;;;;;;;;;;;;;;10.91;41.29;94716.69;5134448;27;964;-49
2022/04/19 12:48:21;;;;;;;;;;;;;;;10.94;41.09;94711.78;5134639;27;952;-49
2022/04/19 12:50:47;;;;;;;;;;;;;;;11.00;39.47;94706.75;5133480;27;1043;-48
2022/04/19 12:53:23;;;;;;;;;;;;;;;11.07;38.69;94697.03;5134401;27;1843;-49
2022/04/19 12:55:49;;;;;;;;;;;;;;;11.59;39.29;94696.41;5133901;27;1032;-48
2022/04/19 12:58:16;;;;;;;;;;;;;;;12.10;38.81;94698.50;5134613;27;1015;-49
2022/04/19 13:00:42;;;;;;;;;;;;;;;12.28;38.11;94695.50;5134544;28;1997;-49
2022/04/19 13:03:07;;;;;;;;;;;;;;;12.28;37.97;94690.97;5134537;28;1080;-49
2022/04/19 13:13:47;;;;;;;;;;;;;;;11.39;40.02;94681.81;5134247;28;1111;-48
2022/04/19 13:16:13;;;;;;;;;;;;;;;11.29;40.34;94679.38;5134428;28;985;-49
2022/04/19 13:18:39;;;;;;;;;;;;;;;11.45;39.95;94678.41;5134118;28;1083;-49
2022/04/19 13:21:06;;;;;;;;;;;;;;;11.55;39.42;94678.16;5134384;28;1910;-49
2022/04/19 13:23:32;;;;;;;;;;;;;;;11.92;39.42;94677.41;5134434;28;1223;-49
2022/04/19 13:25:58;;;;;;;;;;;;;;;11.93;38.95;94680.91;5134126;28;1012;-49
2022/04/19 13:28:26;;;;;;;;;;;;;;;11.82;36.45;94679.47;5134134;28;1087;-49
2022/04/19 13:30:52;;;;;;;;;;;;;;;11.85;37.51;94682.63;5134148;28;1067;-48
2022/04/19 13:33:19;;;;;;;;;;;;;;;12.11;37.78;94684.09;5134083;28;1066;-49
2022/04/19 13:35:45;;;;;;;;;;;;;;;12.19;38.48;94678.66;5134045;28;1054;-49
2022/04/19 13:38:26;;;;;;;;;;;;;;;12.19;38.22;94673.28;5134272;28;951;-48
2022/04/19 13:40:52;;;;;;;;;;;;;;;12.06;37.33;94678.44;5134136;28;1998;-49
2022/04/19 13:43:18;;;;;;;;;;;;;;;11.97;37.61;94682.22;5134137;27;1028;-48
2022/04/19 13:45:46;;;;;;;;;;;;;;;11.80;36.30;94673.44;5134021;28;1071;-48
2022/04/19 13:48:12;;;;;;;;;;;;;;;11.85;37.75;94671.91;5133791;28;1036;-48
2022/04/19 13:50:38;;;;;;;;;;;;;;;12.07;37.23;94680.94;5134144;28;968;-49
2022/04/19 13:53:05;;;;;;;;;;;;;;;12.44;35.62;94678.41;5133808;28;1032;-49